createdAt,value
2019-05-30T00:01:42.763Z,10.10
2019-05-30T00:04:14.117Z,10.00
2019-05-30T00:06:45.486Z,10.00
2019-05-30T00:09:15.833Z,9.90
2019-05-30T00:11:46.145Z,9.90
2019-05-30T00:14:16.553Z,9.90
2019-05-30T00:16:46.951Z,9.90
2019-05-30T00:19:17.584Z,9.80
2019-05-30T00:21:47.915Z,9.80
2019-05-30T00:24:18.209Z,9.70
2019-05-30T00:26:48.602Z,9.70
2019-05-30T00:29:19.951Z,9.70
2019-05-30T00:31:50.380Z,9.70
2019-05-30T00:34:21.009Z,9.60
2019-05-30T00:36:52.493Z,9.60
2019-05-30T00:39:22.815Z,9.60
2019-05-30T00:41:53.130Z,9.60
2019-05-30T00:44:23.517Z,9.50
2019-05-30T00:46:53.872Z,9.50
2019-05-30T00:49:24.200Z,9.40
2019-05-30T00:51:54.563Z,9.40
2019-05-30T00:54:24.855Z,9.40
2019-05-30T00:56:56.485Z,9.30
2019-05-30T00:59:26.911Z,9.30
2019-05-30T01:01:57.206Z,9.30
2019-05-30T01:04:27.517Z,9.30
2019-05-30T01:06:59.302Z,9.20
2019-05-30T01:09:29.676Z,9.20
2019-05-30T01:12:01.034Z,9.20
2019-05-30T01:14:31.507Z,9.20
2019-05-30T01:17:02.920Z,9.20
2019-05-30T01:19:33.753Z,9.20
2019-05-30T01:22:05.394Z,9.10
2019-05-30T01:24:35.836Z,9.10
2019-05-30T01:27:07.320Z,9.00
2019-05-30T01:29:37.987Z,9.00
2019-05-30T01:32:26.139Z,9.00
2019-05-30T01:34:57.562Z,9.00
2019-05-30T01:37:28.994Z,9.00
2019-05-30T01:39:59.766Z,8.90
2019-05-30T01:42:30.225Z,8.90
2019-05-30T01:45:00.534Z,8.80
2019-05-30T01:47:30.827Z,8.80
2019-05-30T01:50:02.409Z,8.80
2019-05-30T01:52:32.823Z,8.80
2019-05-30T01:55:03.154Z,8.70
2019-05-30T01:57:33.465Z,8.70
2019-05-30T02:00:07.888Z,8.70
2019-05-30T02:02:36.212Z,8.70
2019-05-30T02:05:07.539Z,8.70
2019-05-30T02:07:38.355Z,8.70
2019-05-30T02:10:10.051Z,8.60
2019-05-30T02:12:40.568Z,8.60
2019-05-30T02:15:11.656Z,8.50
2019-05-30T02:17:41.973Z,8.60
2019-05-30T02:20:12.847Z,8.50
2019-05-30T02:22:43.171Z,8.50
2019-05-30T02:25:13.729Z,8.50
2019-05-30T02:27:44.085Z,8.40
2019-05-30T02:30:16.318Z,8.40
2019-05-30T02:32:46.670Z,8.40
2019-05-30T02:35:19.437Z,8.40
2019-05-30T02:37:54.031Z,8.40
2019-05-30T02:40:26.250Z,8.40
2019-05-30T02:42:57.495Z,8.40
2019-05-30T02:45:27.869Z,8.40
2019-05-30T02:47:58.647Z,8.30
2019-05-30T02:50:28.985Z,8.30
2019-05-30T02:53:01.203Z,8.30
2019-05-30T02:55:31.598Z,8.30
2019-05-30T02:58:03.567Z,8.30
2019-05-30T03:00:35.968Z,8.30
2019-05-30T03:03:09.023Z,8.30
2019-05-30T03:05:38.251Z,8.30
2019-05-30T03:08:13.904Z,8.30
2019-05-30T03:10:42.919Z,8.40
2019-05-30T03:13:13.226Z,8.40
2019-05-30T03:15:44.633Z,8.40
2019-05-30T03:18:15.264Z,8.40
2019-05-30T03:20:46.016Z,8.40
2019-05-30T03:23:16.305Z,8.40
2019-05-30T03:25:46.661Z,8.40
2019-05-30T03:28:17.034Z,8.40
2019-05-30T03:30:49.070Z,8.50
2019-05-30T03:33:37.475Z,8.50
2019-05-30T03:35:53.717Z,8.50
2019-05-30T03:38:25.260Z,8.50
2019-05-30T03:40:55.987Z,8.60
2019-05-30T03:43:26.275Z,8.60
2019-05-30T03:45:57.240Z,8.60
2019-05-30T03:48:29.389Z,8.70
2019-05-30T03:51:01.982Z,8.70
2019-05-30T03:53:32.291Z,8.70
2019-05-30T03:56:09.879Z,8.80
2019-05-30T03:59:03.607Z,8.80
2019-05-30T04:01:39.675Z,8.90
2019-05-30T04:04:17.035Z,8.90
2019-05-30T04:06:50.460Z,8.90
2019-05-30T04:09:25.093Z,9.00
2019-05-30T04:12:21.487Z,9.00
2019-05-30T04:14:55.125Z,9.00
2019-05-30T04:17:25.476Z,9.00
2019-05-30T04:19:55.849Z,9.10
2019-05-30T04:22:27.253Z,9.10
2019-05-30T04:24:57.715Z,9.20
2019-05-30T04:27:28.018Z,9.20
2019-05-30T04:29:58.342Z,9.30
2019-05-30T04:32:28.683Z,9.30
2019-05-30T04:34:59.035Z,9.40
2019-05-30T04:37:42.582Z,9.40
2019-05-30T04:40:15.252Z,9.50
2019-05-30T04:42:45.944Z,9.50
2019-05-30T04:45:18.047Z,9.50
2019-05-30T04:47:48.596Z,9.60
2019-05-30T04:50:21.235Z,9.60
2019-05-30T04:52:51.924Z,9.70
2019-05-30T04:55:23.170Z,9.80
2019-05-30T04:57:53.578Z,9.80
2019-05-30T05:00:23.905Z,9.90
2019-05-30T05:02:54.204Z,9.90
2019-05-30T05:05:27.084Z,9.90
2019-05-30T05:07:56.937Z,10.00
2019-05-30T05:10:27.572Z,10.10
2019-05-30T05:12:57.897Z,10.20
2019-05-30T05:15:28.212Z,10.20
2019-05-30T05:17:58.543Z,10.30
2019-05-30T05:20:28.918Z,10.40
2019-05-30T05:22:59.240Z,10.40
2019-05-30T05:25:29.581Z,10.50
2019-05-30T05:27:59.890Z,10.60
2019-05-30T05:30:30.557Z,10.80
2019-05-30T05:33:00.979Z,10.90
2019-05-30T05:35:31.613Z,11.00
2019-05-30T05:38:02.003Z,11.10
2019-05-30T05:40:32.372Z,11.20
2019-05-30T05:43:03.716Z,11.30
2019-05-30T05:45:34.155Z,11.40
2019-05-30T05:48:04.498Z,11.60
2019-05-30T05:50:34.901Z,11.90
2019-05-30T05:53:05.210Z,12.00
2019-05-30T05:55:35.542Z,12.10
2019-05-30T05:58:05.879Z,12.10
2019-05-30T06:00:36.258Z,12.20
2019-05-30T06:03:06.568Z,12.30
2019-05-30T06:05:51.973Z,12.40
2019-05-30T06:08:08.894Z,12.50
2019-05-30T06:10:39.675Z,12.60
2019-05-30T06:13:09.990Z,12.70
2019-05-30T06:15:40.302Z,12.80
2019-05-30T06:18:10.644Z,12.80
2019-05-30T06:20:40.946Z,12.80
2019-05-30T06:23:11.349Z,12.80
2019-05-30T06:25:41.647Z,12.80
2019-05-30T06:28:11.977Z,12.70
2019-05-30T06:30:42.490Z,12.80
2019-05-30T06:33:12.860Z,12.80
2019-05-30T06:35:43.146Z,12.90
2019-05-30T06:38:13.541Z,12.90
2019-05-30T06:40:43.855Z,13.00
2019-05-30T06:43:14.256Z,13.00
2019-05-30T06:45:44.562Z,13.10
2019-05-30T06:48:14.904Z,13.20
2019-05-30T06:50:45.261Z,13.30
2019-05-30T06:53:15.605Z,13.50
2019-05-30T06:55:46.399Z,13.60
2019-05-30T06:58:41.446Z,13.70
2019-05-30T07:01:00.618Z,13.70
2019-05-30T07:03:30.997Z,13.80
2019-05-30T07:06:01.887Z,13.90
2019-05-30T07:08:33.054Z,13.90
2019-05-30T07:11:03.462Z,14.00
2019-05-30T07:13:33.823Z,14.00
2019-05-30T07:16:04.195Z,14.10
2019-05-30T07:18:36.582Z,14.20
2019-05-30T07:21:06.474Z,14.30
2019-05-30T07:23:39.295Z,14.40
2019-05-30T07:26:08.745Z,14.50
2019-05-30T07:28:39.104Z,14.60
2019-05-30T07:31:09.414Z,14.90
2019-05-30T07:33:58.834Z,15.40
2019-05-30T07:36:30.235Z,16.40
2019-05-30T07:39:00.809Z,18.60
2019-05-30T07:41:33.355Z,20.90
2019-05-30T07:44:03.892Z,23.00
2019-05-30T07:46:35.139Z,24.90
2019-05-30T07:49:05.588Z,26.50
2019-05-30T07:54:28.900Z,28.80
2019-05-30T07:56:59.213Z,29.70
2019-05-30T07:59:30.685Z,30.50
2019-05-30T08:02:00.975Z,31.20
2019-05-30T08:04:32.501Z,31.90
2019-05-30T08:07:03.316Z,32.50
2019-05-30T08:09:33.664Z,33.10
2019-05-30T09:03:07.610Z,38.20
2019-05-30T09:08:37.953Z,38.20
2019-05-30T09:58:51.885Z,38.70
2019-05-30T10:01:22.291Z,38.50
2019-05-30T10:03:52.586Z,38.40
2019-05-30T10:06:29.307Z,38.30
2019-05-30T10:08:55.214Z,38.20
2019-05-30T10:11:25.570Z,37.90
2019-05-30T10:13:56.920Z,37.80
2019-05-30T10:16:27.416Z,37.60
2019-05-30T10:18:57.843Z,37.30
2019-05-30T10:21:28.183Z,37.20
2019-05-30T10:30:00.974Z,36.60
2019-05-30T10:32:32.444Z,36.30
2019-05-30T10:35:02.704Z,36.00
2019-05-30T10:43:44.712Z,34.40
2019-05-30T10:46:16.782Z,33.60
2019-05-30T10:54:41.168Z,32.30
2019-05-30T10:57:12.812Z,31.90
2019-05-30T10:59:43.619Z,31.60
2019-05-30T11:02:13.928Z,31.30
2019-05-30T11:04:44.276Z,31.00
2019-05-30T11:10:54.868Z,30.10
2019-05-30T11:13:25.165Z,29.80
2019-05-30T11:15:55.610Z,29.70
2019-05-30T11:18:25.960Z,29.60
2019-05-30T11:21:14.392Z,29.50
2019-05-30T11:23:44.722Z,29.40
2019-05-30T11:26:35.620Z,29.20
2019-05-30T11:29:06.086Z,28.90
2019-05-30T11:31:37.896Z,28.80
2019-05-30T11:34:20.575Z,28.80
2019-05-30T11:36:55.581Z,28.70
2019-05-30T11:39:28.250Z,28.60
2019-05-30T11:41:59.511Z,28.50
2019-05-30T11:44:45.582Z,28.40
2019-05-30T11:47:15.934Z,28.20
2019-05-30T11:49:49.554Z,28.10
2019-05-30T11:52:19.893Z,27.80
2019-05-30T11:54:50.214Z,27.60
2019-05-30T11:57:21.045Z,27.50
2019-05-30T11:59:52.160Z,27.20
2019-05-30T12:02:22.505Z,27.10
2019-05-30T12:04:54.523Z,27.00
2019-05-30T12:07:35.909Z,26.80
2019-05-30T12:09:58.891Z,26.60
2019-05-30T12:12:29.447Z,26.60
2019-05-30T12:14:59.784Z,26.40
2019-05-30T12:17:30.215Z,26.30
2019-05-30T12:20:01.651Z,26.10
2019-05-30T12:22:32.333Z,26.00
2019-05-30T12:25:02.821Z,25.90
2019-05-30T12:27:35.274Z,25.80
2019-05-30T12:30:06.603Z,25.70
2019-05-30T12:35:37.647Z,25.60
2019-05-30T12:38:08.032Z,25.60
2019-05-30T12:40:38.385Z,25.50
2019-05-30T12:43:08.768Z,25.40
2019-05-30T12:45:39.187Z,25.30
2019-05-30T12:48:28.636Z,25.30
2019-05-30T12:50:59.384Z,25.30
2019-05-30T12:53:29.914Z,25.30
2019-05-30T12:56:00.641Z,25.20
2019-05-30T12:58:34.121Z,25.20
2019-05-30T13:01:04.414Z,25.10
2019-05-30T13:03:34.761Z,25.10
2019-05-30T13:06:07.816Z,25.00
2019-05-30T13:08:38.195Z,24.90
2019-05-30T13:11:08.529Z,24.80
2019-05-30T13:13:38.987Z,24.80
2019-05-30T13:16:09.408Z,24.80
2019-05-30T13:18:39.775Z,24.70
2019-05-30T13:21:10.296Z,24.60
2019-05-30T13:23:59.662Z,24.60
2019-05-30T13:26:30.010Z,24.50
2019-05-30T13:29:00.392Z,24.40
2019-05-30T13:31:30.674Z,24.40
2019-05-30T13:34:01.162Z,24.30
2019-05-30T13:36:32.088Z,24.20
2019-05-30T13:39:03.248Z,24.00
2019-05-30T13:41:45.264Z,23.80
2019-05-30T13:44:15.676Z,23.60
2019-05-30T13:46:46.009Z,23.50
2019-05-30T13:49:16.399Z,23.40
2019-05-30T13:51:46.939Z,23.20
2019-05-30T13:54:17.389Z,23.00
2019-05-30T13:56:47.736Z,22.90
2019-05-30T13:59:24.294Z,22.90
2019-05-30T14:01:54.667Z,22.80
2019-05-30T14:04:25.001Z,22.70
2019-05-30T14:06:56.095Z,22.60
2019-05-30T14:09:26.418Z,22.40
2019-05-30T14:11:56.819Z,22.30
2019-05-30T14:14:27.186Z,22.20
2019-05-30T14:16:57.677Z,22.20
2019-05-30T14:19:28.003Z,22.10
2019-05-30T14:21:58.431Z,22.00
2019-05-30T14:24:28.842Z,22.00
2019-05-30T14:26:59.225Z,22.00
2019-05-30T14:29:29.618Z,22.00
2019-05-30T14:31:59.955Z,22.10
2019-05-30T14:34:30.297Z,22.10
2019-05-30T14:37:02.397Z,22.20
2019-05-30T14:39:32.880Z,22.20
2019-05-30T14:42:03.251Z,22.30
2019-05-30T14:44:33.588Z,22.30
2019-05-30T14:47:04.290Z,22.40
2019-05-30T14:49:34.649Z,22.40
2019-05-30T14:52:04.980Z,22.40
2019-05-30T14:54:35.383Z,22.40
2019-05-30T14:57:06.735Z,22.30
2019-05-30T14:59:37.195Z,22.30
2019-05-30T15:02:07.647Z,22.40
2019-05-30T15:04:37.993Z,22.40
2019-05-30T15:07:09.543Z,22.30
2019-05-30T15:09:42.443Z,22.30
2019-05-30T15:12:12.680Z,22.20
2019-05-30T15:14:43.133Z,22.10
2019-05-30T15:17:14.300Z,22.20
2019-05-30T15:19:44.780Z,22.10
2019-05-30T15:22:17.091Z,22.00
2019-05-30T15:24:47.046Z,22.00
2019-05-30T15:27:20.576Z,22.00
2019-05-30T15:30:01.435Z,22.00
2019-05-30T15:32:31.833Z,22.00
2019-05-30T15:35:02.160Z,22.00
2019-05-30T15:37:32.675Z,21.90
2019-05-30T15:40:03.071Z,21.90
2019-05-30T15:42:33.383Z,21.90
2019-05-30T15:45:03.818Z,21.80
2019-05-30T15:47:34.135Z,21.70
2019-05-30T15:50:05.606Z,21.60
2019-05-30T15:52:35.900Z,21.60
2019-05-30T15:55:06.657Z,21.50
2019-05-30T15:57:37.002Z,21.40
2019-05-30T16:00:10.011Z,21.30
2019-05-30T16:02:40.406Z,21.20
2019-05-30T16:05:12.355Z,21.10
2019-05-30T16:07:43.964Z,21.00
2019-05-30T16:10:25.865Z,21.00
2019-05-30T16:12:56.229Z,20.90
2019-05-30T16:15:26.544Z,20.80
2019-05-30T16:17:56.922Z,20.80
2019-05-30T16:20:27.315Z,20.70
2019-05-30T16:22:57.748Z,20.60
2019-05-30T16:25:28.089Z,20.60
2019-05-30T16:27:58.388Z,20.50
2019-05-30T16:30:28.827Z,20.50
2019-05-30T16:32:59.254Z,20.40
2019-05-30T16:35:29.544Z,20.40
2019-05-30T16:38:00.288Z,20.30
2019-05-30T16:40:30.627Z,20.30
2019-05-30T16:43:00.943Z,20.40
2019-05-30T16:45:31.277Z,20.30
2019-05-30T16:48:01.594Z,20.30
2019-05-30T16:50:31.984Z,20.20
2019-05-30T16:53:02.355Z,20.20
2019-05-30T16:55:32.704Z,20.10
2019-05-30T16:58:03.015Z,20.00
2019-05-30T17:00:52.444Z,20.00
2019-05-30T17:03:23.721Z,19.90
2019-05-30T17:05:55.438Z,19.80
2019-05-30T17:08:26.655Z,19.80
2019-05-30T17:10:57.005Z,19.70
2019-05-30T17:13:27.374Z,19.70
2019-05-30T17:15:57.766Z,19.70
2019-05-30T17:18:28.279Z,19.60
2019-05-30T17:21:00.037Z,19.50
2019-05-30T17:23:30.414Z,19.40
2019-05-30T17:26:00.796Z,19.30
2019-05-30T17:28:31.151Z,19.20
2019-05-30T17:31:01.467Z,19.20
2019-05-30T17:33:31.808Z,19.10
2019-05-30T17:36:02.125Z,19.10
2019-05-30T17:38:32.997Z,19.00
2019-05-30T17:41:03.317Z,19.00
2019-05-30T17:43:33.751Z,18.90
2019-05-30T17:46:07.622Z,18.80
2019-05-30T17:48:36.475Z,18.80
2019-05-30T17:51:06.802Z,18.70
2019-05-30T17:53:37.916Z,18.70
2019-05-30T17:56:08.364Z,18.60
2019-05-30T17:58:39.811Z,18.60
2019-05-30T18:01:10.212Z,18.50
2019-05-30T18:03:40.534Z,18.40
2019-05-30T18:06:11.883Z,18.40
2019-05-30T18:08:43.650Z,18.40
2019-05-30T18:11:14.017Z,18.30
2019-05-30T18:13:45.157Z,18.20
2019-05-30T18:16:15.577Z,18.20
2019-05-30T18:18:45.983Z,18.20
2019-05-30T18:21:16.888Z,18.00
2019-05-30T18:23:47.362Z,18.00
2019-05-30T18:26:21.482Z,17.90
2019-05-30T18:28:51.945Z,17.80
2019-05-30T18:31:22.252Z,17.70
2019-05-30T18:33:52.573Z,17.60
2019-05-30T18:36:24.248Z,17.60
2019-05-30T18:38:55.293Z,17.60
2019-05-30T18:41:26.598Z,17.60
2019-05-30T18:43:56.986Z,17.60
2019-05-30T18:46:27.340Z,17.60
2019-05-30T18:48:57.720Z,17.50
2019-05-30T18:51:30.343Z,17.50
2019-05-30T18:54:01.826Z,17.50
2019-05-30T18:56:32.775Z,17.50
2019-05-30T18:59:04.827Z,17.40
2019-05-30T19:01:35.251Z,17.40
2019-05-30T19:04:06.139Z,17.30
2019-05-30T19:06:36.815Z,17.30
2019-05-30T19:09:08.935Z,17.30
2019-05-30T19:11:39.382Z,17.20
2019-05-30T19:14:09.781Z,17.10
2019-05-30T19:16:42.623Z,17.10
2019-05-30T19:19:18.684Z,17.00
2019-05-30T19:21:49.128Z,17.00
2019-05-30T19:24:19.524Z,16.90
2019-05-30T19:27:00.666Z,16.80
2019-05-30T19:29:34.913Z,16.70
2019-05-30T19:32:07.714Z,16.60
2019-05-30T19:34:43.223Z,16.60
2019-05-30T19:37:13.682Z,16.50
2019-05-30T19:39:57.086Z,16.50
2019-05-30T19:42:27.376Z,16.40
2019-05-30T19:45:03.328Z,16.30
2019-05-30T19:47:36.586Z,16.20
2019-05-30T19:50:07.240Z,16.20
2019-05-30T19:52:39.851Z,16.10
2019-05-30T19:55:11.475Z,16.00
2019-05-30T19:57:47.290Z,16.00
2019-05-30T20:00:19.346Z,15.90
2019-05-30T20:02:53.686Z,15.90
2019-05-30T20:05:27.401Z,15.80
2019-05-30T20:07:59.857Z,15.80
2019-05-30T20:10:30.741Z,15.80
2019-05-30T20:13:21.793Z,15.70
2019-05-30T20:15:52.165Z,15.70
2019-05-30T20:18:22.842Z,15.60
2019-05-30T20:20:57.871Z,15.60
2019-05-30T20:23:26.962Z,15.60
2019-05-30T20:25:57.307Z,15.50
2019-05-30T20:28:27.787Z,15.50
2019-05-30T20:31:00.290Z,15.40
2019-05-30T20:33:32.746Z,15.40
2019-05-30T20:36:09.363Z,15.40
2019-05-30T20:38:40.650Z,15.30
2019-05-30T20:41:15.678Z,15.30
2019-05-30T20:43:48.385Z,15.30
2019-05-30T20:46:23.878Z,15.20
2019-05-30T20:48:54.397Z,15.10
2019-05-30T20:51:25.451Z,15.00
2019-05-30T20:53:58.134Z,15.00
2019-05-30T20:56:29.911Z,14.90
2019-05-30T20:59:10.082Z,14.90
2019-05-30T21:01:44.176Z,14.80
2019-05-30T21:04:16.327Z,14.80
2019-05-30T21:06:49.499Z,14.70
2019-05-30T21:09:29.039Z,14.70
2019-05-30T21:11:54.535Z,14.60
2019-05-30T21:14:28.338Z,14.60
2019-05-30T21:17:00.684Z,14.50
2019-05-30T21:19:31.096Z,14.50
2019-05-30T21:22:07.557Z,14.40
2019-05-30T21:24:49.143Z,14.40
2019-05-30T21:27:19.992Z,14.40
2019-05-30T21:29:50.399Z,14.30
2019-05-30T21:32:21.939Z,14.30
2019-05-30T21:34:52.955Z,14.30
2019-05-30T21:37:23.432Z,14.30
2019-05-30T21:39:55.466Z,14.20
2019-05-30T21:42:28.395Z,14.20
2019-05-30T21:45:00.117Z,14.20
2019-05-30T21:47:30.608Z,14.20
2019-05-30T21:50:00.980Z,14.20
2019-05-30T21:52:31.355Z,14.10
2019-05-30T21:55:03.527Z,14.00
2019-05-30T21:57:33.609Z,14.00
2019-05-30T22:00:05.038Z,13.90
2019-05-30T22:02:36.962Z,13.90
2019-05-30T22:05:08.634Z,13.80
2019-05-30T22:07:39.182Z,13.80
2019-05-30T22:10:10.630Z,13.80
2019-05-30T22:12:43.997Z,13.70
2019-05-30T22:15:14.520Z,13.70
2019-05-30T22:17:45.718Z,13.60
2019-05-30T22:20:16.197Z,13.70
2019-05-30T22:22:46.547Z,13.60
2019-05-30T22:25:19.746Z,13.60
2019-05-30T22:27:50.545Z,13.60
2019-05-30T22:30:21.759Z,13.60
2019-05-30T22:32:52.863Z,13.60
2019-05-30T22:35:23.167Z,13.50
2019-05-30T22:37:53.516Z,13.50
2019-05-30T22:40:23.849Z,13.50
2019-05-30T22:42:54.251Z,13.40
2019-05-30T22:45:24.544Z,13.40
2019-05-30T22:47:54.889Z,13.40
2019-05-30T22:50:25.187Z,13.40
2019-05-30T22:52:55.525Z,13.30
2019-05-30T22:55:25.813Z,13.30
2019-05-30T22:57:56.804Z,13.30
2019-05-30T23:00:27.263Z,13.30
2019-05-30T23:02:57.615Z,13.20
2019-05-30T23:05:28.956Z,13.20
2019-05-30T23:07:59.330Z,13.20
2019-05-30T23:10:29.655Z,13.10
2019-05-30T23:13:01.083Z,13.10
2019-05-30T23:15:31.430Z,13.10
2019-05-30T23:18:01.818Z,13.10
2019-05-30T23:20:32.212Z,13.00
2019-05-30T23:23:02.476Z,13.00
2019-05-30T23:25:32.924Z,13.00
2019-05-30T23:28:03.253Z,13.00
2019-05-30T23:30:33.596Z,12.90
2019-05-30T23:33:03.970Z,12.90
2019-05-30T23:35:34.260Z,12.90
2019-05-30T23:38:04.577Z,12.90
2019-05-30T23:40:34.863Z,12.80
2019-05-30T23:43:05.388Z,12.80
2019-05-30T23:45:36.269Z,12.80
2019-05-30T23:48:06.653Z,12.80
2019-05-30T23:50:37.375Z,12.70
2019-05-30T23:53:07.705Z,12.70
2019-05-30T23:55:37.994Z,12.70
2019-05-30T23:58:08.394Z,12.70
